createdAt,value
2023-04-25T00:02:07.868Z,1.48
2023-04-25T00:04:35.809Z,1.90
2023-04-25T00:07:04.827Z,1.60
2023-04-25T00:09:32.457Z,1.27
2023-04-25T00:11:59.989Z,1.60
2023-04-25T00:14:28.607Z,2.00
2023-04-25T00:19:23.601Z,0.90
2023-04-25T00:21:51.184Z,1.88
2023-04-25T00:24:20.049Z,1.65
2023-04-25T00:26:47.608Z,1.63
2023-04-25T00:29:15.169Z,1.63
2023-04-25T00:31:42.685Z,1.50
2023-04-25T00:34:10.458Z,1.25
2023-04-25T00:36:39.013Z,1.33
2023-04-25T00:39:07.373Z,1.83
2023-04-25T00:41:36.643Z,1.20
2023-04-25T00:44:05.888Z,1.08
2023-04-25T00:46:33.467Z,1.60
2023-04-25T00:49:00.914Z,1.73
2023-04-25T00:51:28.552Z,1.52
2023-04-25T00:53:56.277Z,1.33
2023-04-25T00:56:24.024Z,1.30
2023-04-25T00:58:57.341Z,1.30
2023-04-25T01:01:25.097Z,1.38
2023-04-25T01:03:55.156Z,1.27
2023-04-25T01:06:23.248Z,1.52
2023-04-25T01:08:50.766Z,1.38
2023-04-25T01:11:18.306Z,1.38
2023-04-25T01:13:45.989Z,1.27
2023-04-25T01:16:14.964Z,1.20
2023-04-25T01:18:43.584Z,1.48
2023-04-25T01:21:13.993Z,1.50
2023-04-25T01:23:42.582Z,1.38
2023-04-25T01:26:11.785Z,1.88
2023-04-25T01:28:41.951Z,1.33
2023-04-25T01:31:09.642Z,1.52
2023-04-25T01:33:37.267Z,1.38
2023-04-25T01:36:05.581Z,1.60
2023-04-25T01:38:34.752Z,0.90
2023-04-25T01:41:02.297Z,1.42
2023-04-25T01:43:29.940Z,1.40
2023-04-25T01:45:58.402Z,1.70
2023-04-25T01:48:26.096Z,1.35
2023-04-25T01:50:53.610Z,1.70
2023-04-25T01:53:21.195Z,1.77
2023-04-25T01:55:50.050Z,1.23
2023-04-25T01:58:17.600Z,1.65
2023-04-25T02:00:45.556Z,1.85
2023-04-25T02:03:13.084Z,0.98
2023-04-25T02:05:42.208Z,1.52
2023-04-25T02:08:10.710Z,1.50
2023-04-25T02:10:38.398Z,1.80
2023-04-25T02:13:07.294Z,1.83
2023-04-25T02:15:34.990Z,1.92
2023-04-25T02:18:02.918Z,1.98
2023-04-25T02:20:32.389Z,1.48
2023-04-25T02:22:59.962Z,1.55
2023-04-25T02:25:27.890Z,1.95
2023-04-25T02:27:55.663Z,1.65
2023-04-25T02:30:24.463Z,1.45
2023-04-25T02:32:52.067Z,1.52
2023-04-25T02:35:19.976Z,1.63
2023-04-25T02:37:47.524Z,1.70
2023-04-25T02:40:15.065Z,1.88
2023-04-25T02:42:42.528Z,1.67
2023-04-25T02:45:11.062Z,1.10
2023-04-25T02:47:40.012Z,1.73
2023-04-25T02:50:08.551Z,1.92
2023-04-25T02:52:36.260Z,1.83
2023-04-25T02:55:03.750Z,1.50
2023-04-25T02:57:31.212Z,1.45
2023-04-25T02:59:58.706Z,1.85
2023-04-25T03:02:26.356Z,1.60
2023-04-25T03:04:55.188Z,1.83
2023-04-25T03:07:22.680Z,1.70
2023-04-25T03:09:50.118Z,1.50
2023-04-25T03:12:17.906Z,2.03
2023-04-25T03:14:45.485Z,2.28
2023-04-25T03:17:12.957Z,2.10
2023-04-25T03:19:40.461Z,1.88
2023-04-25T03:22:09.309Z,1.85
2023-04-25T03:24:38.138Z,1.60
2023-04-25T03:27:05.616Z,3.03
2023-04-25T03:29:33.094Z,1.67
2023-04-25T03:32:00.609Z,2.17
2023-04-25T03:34:28.181Z,2.67
2023-04-25T03:36:55.678Z,2.85
2023-04-25T03:39:24.501Z,2.95
2023-04-25T03:41:51.956Z,2.75
2023-04-25T03:44:19.660Z,2.70
2023-04-25T03:46:47.113Z,2.88
2023-04-25T03:49:17.159Z,2.53
2023-04-25T03:51:46.646Z,2.50
2023-04-25T03:54:14.061Z,2.90
2023-04-25T03:56:42.845Z,2.75
2023-04-25T03:59:10.290Z,2.65
2023-04-25T04:01:37.802Z,0.57
2023-04-25T04:04:05.673Z,2.45
2023-04-25T04:06:34.017Z,2.38
2023-04-25T04:09:01.727Z,2.55
2023-04-25T04:11:29.316Z,2.90
2023-04-25T04:13:58.093Z,2.95
2023-04-25T04:16:26.014Z,3.28
2023-04-25T04:18:53.546Z,2.28
2023-04-25T04:21:20.979Z,2.47
2023-04-25T04:23:49.062Z,3.47
2023-04-25T04:26:17.270Z,2.95
2023-04-25T04:28:45.850Z,4.43
2023-04-25T04:31:17.808Z,3.15
2023-04-25T04:33:45.550Z,2.97
2023-04-25T04:36:13.126Z,3.88
2023-04-25T04:38:42.016Z,3.22
2023-04-25T04:41:10.058Z,3.35
2023-04-25T04:43:37.582Z,2.90
2023-04-25T04:46:05.431Z,3.00
2023-04-25T04:48:35.042Z,3.55
2023-04-25T04:51:02.619Z,2.92
2023-04-25T04:53:30.130Z,2.83
2023-04-25T04:55:57.604Z,4.18
2023-04-25T04:58:25.260Z,4.55
2023-04-25T05:00:52.811Z,3.88
2023-04-25T05:03:20.502Z,4.80
2023-04-25T05:05:49.557Z,3.45
2023-04-25T05:08:17.002Z,3.28
2023-04-25T05:10:44.448Z,3.00
2023-04-25T05:13:11.886Z,3.65
2023-04-25T05:15:39.496Z,3.10
2023-04-25T05:18:07.085Z,2.90
2023-04-25T05:20:34.554Z,2.33
2023-04-25T05:23:03.539Z,3.03
2023-04-25T05:25:31.136Z,3.00
2023-04-25T05:27:59.218Z,3.55
2023-04-25T05:30:26.715Z,2.90
2023-04-25T05:32:54.231Z,3.58
2023-04-25T05:35:21.816Z,3.35
2023-04-25T05:37:49.316Z,2.83
2023-04-25T05:40:18.111Z,2.60
2023-04-25T05:42:45.557Z,2.40
2023-04-25T05:45:12.977Z,3.25
2023-04-25T05:47:40.629Z,3.35
2023-04-25T05:50:09.685Z,3.17
2023-04-25T05:52:37.158Z,3.30
2023-04-25T05:55:05.017Z,3.28
2023-04-25T05:57:33.864Z,3.53
2023-04-25T06:00:01.494Z,3.28
2023-04-25T06:02:29.014Z,4.13
2023-04-25T06:04:56.823Z,3.58
2023-04-25T06:07:24.418Z,3.00
2023-04-25T06:09:51.935Z,3.22
2023-04-25T06:12:19.388Z,2.83
2023-04-25T06:14:48.542Z,3.05
2023-04-25T06:17:16.195Z,3.42
2023-04-25T06:19:43.699Z,4.85
2023-04-25T06:22:12.189Z,3.10
2023-04-25T06:24:39.613Z,3.75
2023-04-25T06:27:07.058Z,3.60
2023-04-25T06:29:34.587Z,3.45
2023-04-25T06:32:03.352Z,4.60
2023-04-25T06:36:58.348Z,4.47
2023-04-25T06:39:26.279Z,4.03
2023-04-25T06:41:54.345Z,3.28
2023-04-25T06:44:23.997Z,3.92
2023-04-25T06:46:51.689Z,3.47
2023-04-25T06:49:20.668Z,3.70
2023-04-25T06:54:15.471Z,2.38
2023-04-25T06:56:43.076Z,2.65
2023-04-25T06:59:10.656Z,5.32
2023-04-25T07:01:38.111Z,3.85
2023-04-25T07:04:05.955Z,9.65
2023-04-25T07:06:35.004Z,14.82
2023-04-25T07:11:29.744Z,4.65
2023-04-25T07:13:57.189Z,2.28
2023-04-25T07:16:24.644Z,2.97
2023-04-25T07:18:52.300Z,3.03
2023-04-25T07:21:19.939Z,2.95
2023-04-25T07:23:48.830Z,1.98
2023-04-25T07:26:16.268Z,3.05
2023-04-25T07:28:44.294Z,3.08
2023-04-25T07:31:11.817Z,3.30
2023-04-25T07:33:39.253Z,2.67
2023-04-25T07:36:07.503Z,3.45
2023-04-25T07:38:37.051Z,3.17
2023-04-25T07:41:06.037Z,2.85
2023-04-25T07:43:33.621Z,2.28
2023-04-25T07:46:01.259Z,2.50
2023-04-25T07:48:28.791Z,1.70
2023-04-25T07:50:56.282Z,1.80
2023-04-25T07:53:23.714Z,2.42
2023-04-25T07:55:52.157Z,2.25
2023-04-25T07:58:22.312Z,1.35
2023-04-25T08:00:50.099Z,1.80
2023-04-25T08:03:17.733Z,1.73
2023-04-25T08:05:46.780Z,2.13
2023-04-25T08:08:14.352Z,1.90
2023-04-25T08:10:44.051Z,1.55
2023-04-25T08:13:11.477Z,1.50
2023-04-25T08:15:40.401Z,1.75
2023-04-25T08:18:08.249Z,2.15
2023-04-25T08:20:35.776Z,1.90
2023-04-25T08:23:03.214Z,1.45
2023-04-25T08:25:30.669Z,1.83
2023-04-25T08:28:00.299Z,2.05
2023-04-25T08:30:27.925Z,1.75
2023-04-25T08:32:56.789Z,1.85
2023-04-25T08:35:24.283Z,2.60
2023-04-25T08:37:52.213Z,1.83
2023-04-25T08:40:26.895Z,2.40
2023-04-25T08:42:55.307Z,2.28
2023-04-25T08:45:23.231Z,2.70
2023-04-25T08:47:54.009Z,2.40
2023-04-25T08:50:24.591Z,2.78
2023-04-25T08:52:53.420Z,2.95
2023-04-25T08:55:22.467Z,3.10
2023-04-25T08:57:51.378Z,3.33
2023-04-25T09:00:20.612Z,3.00
2023-04-25T09:02:49.281Z,3.53
2023-04-25T09:07:46.676Z,2.88
2023-04-25T09:10:15.331Z,4.03
2023-04-25T09:12:43.224Z,3.08
2023-04-25T09:15:20.375Z,3.83
2023-04-25T09:17:56.973Z,2.92
2023-04-25T09:20:25.691Z,2.95
2023-04-25T09:25:37.130Z,3.30
2023-04-25T09:28:06.572Z,3.60
2023-04-25T09:30:35.431Z,3.25
2023-04-25T09:33:07.925Z,3.58
2023-04-25T09:35:40.293Z,3.58
2023-04-25T09:38:14.422Z,3.20
2023-04-25T09:40:45.663Z,3.17
2023-04-25T09:43:21.916Z,1.27
2023-04-25T09:45:50.224Z,3.30
2023-04-25T09:48:20.372Z,3.47
2023-04-25T09:50:47.967Z,4.35
2023-04-25T09:53:16.714Z,3.53
2023-04-25T09:55:46.141Z,1.98
2023-04-25T09:58:16.067Z,3.22
2023-04-25T10:00:43.549Z,2.40
2023-04-25T10:03:12.869Z,2.38
2023-04-25T10:05:41.843Z,2.83
2023-04-25T10:08:09.834Z,2.95
2023-04-25T10:10:40.318Z,2.85
2023-04-25T10:13:09.115Z,2.90
2023-04-25T10:15:39.719Z,2.85
2023-04-25T10:18:08.650Z,1.73
2023-04-25T10:20:36.499Z,2.53
2023-04-25T10:23:12.674Z,2.25
2023-04-25T10:25:42.336Z,1.83
2023-04-25T10:28:10.906Z,2.22
2023-04-25T10:30:38.737Z,1.85
2023-04-25T10:33:18.952Z,2.25
2023-04-25T10:35:47.214Z,2.10
2023-04-25T10:38:16.311Z,1.48
2023-04-25T10:41:04.942Z,1.55
2023-04-25T10:43:37.911Z,1.75
2023-04-25T10:46:15.177Z,1.35
2023-04-25T10:48:48.949Z,1.85
2023-04-25T10:51:23.730Z,1.02
2023-04-25T10:56:32.256Z,1.08
2023-04-25T10:59:08.154Z,2.10
2023-04-25T11:01:40.886Z,1.00
2023-04-25T11:04:20.819Z,1.02
2023-04-25T11:07:06.372Z,1.42
2023-04-25T11:09:35.729Z,1.17
2023-04-25T11:12:04.924Z,1.30
2023-04-25T11:14:32.641Z,1.17
2023-04-25T11:17:01.165Z,1.75
2023-04-25T11:19:29.774Z,1.30
2023-04-25T11:21:57.863Z,1.17
2023-04-25T11:24:27.826Z,0.85
2023-04-25T11:26:55.754Z,0.90
2023-04-25T11:29:25.380Z,0.82
2023-04-25T11:31:52.874Z,0.90
2023-04-25T11:34:20.561Z,0.70
2023-04-25T11:36:48.229Z,1.00
2023-04-25T11:39:16.238Z,1.20
2023-04-25T11:41:45.798Z,1.27
2023-04-25T11:44:13.910Z,0.77
2023-04-25T11:46:42.968Z,0.70
2023-04-25T11:49:10.608Z,0.93
2023-04-25T11:51:41.400Z,1.17
2023-04-25T11:54:08.934Z,0.70
2023-04-25T11:56:36.632Z,0.70
2023-04-25T11:59:05.585Z,1.10
2023-04-25T12:01:35.290Z,0.70
2023-04-25T12:04:14.775Z,0.90
2023-04-25T12:06:44.042Z,1.20
2023-04-25T12:09:14.006Z,0.90
2023-04-25T12:11:45.053Z,0.20
2023-04-25T12:14:13.006Z,1.30
2023-04-25T12:16:45.280Z,0.60
2023-04-25T12:19:17.535Z,1.00
2023-04-25T12:21:57.132Z,1.35
2023-04-25T12:24:28.246Z,0.82
2023-04-25T12:27:01.794Z,1.52
2023-04-25T12:29:34.738Z,1.15
2023-04-25T12:32:09.998Z,1.45
2023-04-25T12:34:38.851Z,0.90
2023-04-25T12:37:06.462Z,1.52
2023-04-25T12:39:33.901Z,1.00
2023-04-25T12:42:01.910Z,1.48
2023-04-25T12:44:29.359Z,1.02
2023-04-25T12:46:57.128Z,1.10
2023-04-25T12:49:24.728Z,1.50
2023-04-25T12:51:53.502Z,1.15
2023-04-25T12:54:21.030Z,1.20
2023-04-25T12:56:48.826Z,1.10
2023-04-25T12:59:16.307Z,0.90
2023-04-25T13:01:43.922Z,1.38
2023-04-25T13:04:11.639Z,1.25
2023-04-25T13:06:39.194Z,0.68
2023-04-25T13:09:08.577Z,1.10
2023-04-25T13:11:36.355Z,1.40
2023-04-25T13:14:03.890Z,1.35
2023-04-25T13:16:31.429Z,1.58
2023-04-25T13:19:00.161Z,1.60
2023-04-25T13:21:27.893Z,1.27
2023-04-25T13:23:55.669Z,0.75
2023-04-25T13:26:24.611Z,1.30
2023-04-25T13:28:52.079Z,1.13
2023-04-25T13:31:19.578Z,1.15
2023-04-25T13:33:47.084Z,1.27
2023-04-25T13:36:14.653Z,1.40
2023-04-25T13:38:44.577Z,2.05
2023-04-25T13:41:14.672Z,1.73
2023-04-25T13:43:43.467Z,1.83
2023-04-25T13:46:30.216Z,1.30
2023-04-25T13:49:06.091Z,1.23
2023-04-25T13:51:37.692Z,1.60
2023-04-25T13:54:05.588Z,1.55
2023-04-25T13:56:33.153Z,1.05
2023-04-25T13:59:01.984Z,1.10
2023-04-25T14:01:31.551Z,1.38
2023-04-25T14:03:59.306Z,1.00
2023-04-25T14:06:26.857Z,1.45
2023-04-25T14:08:54.391Z,1.52
2023-04-25T14:11:22.020Z,1.83
2023-04-25T14:13:50.227Z,1.75
2023-04-25T14:16:19.357Z,2.45
2023-04-25T14:18:46.940Z,1.17
2023-04-25T14:21:14.403Z,1.23
2023-04-25T14:23:41.862Z,2.00
2023-04-25T14:26:12.886Z,1.40
2023-04-25T14:28:40.626Z,1.90
2023-04-25T14:31:08.380Z,1.40
2023-04-25T14:33:38.861Z,1.60
2023-04-25T14:36:06.618Z,1.60
2023-04-25T14:38:34.122Z,2.00
2023-04-25T14:41:01.918Z,1.80
2023-04-25T14:43:29.362Z,1.73
2023-04-25T14:45:58.334Z,1.88
2023-04-25T14:48:26.728Z,1.65
2023-04-25T14:50:56.266Z,1.65
2023-04-25T14:53:23.753Z,1.80
2023-04-25T14:55:51.238Z,1.35
2023-04-25T14:58:18.717Z,1.55
2023-04-25T15:00:46.638Z,1.80
2023-04-25T15:03:15.176Z,1.40
2023-04-25T15:05:42.773Z,1.00
2023-04-25T15:08:12.126Z,1.58
2023-04-25T15:10:39.621Z,1.45
2023-04-25T15:13:07.129Z,1.80
2023-04-25T15:15:34.594Z,2.35
2023-04-25T15:18:02.181Z,2.03
2023-04-25T15:20:29.684Z,1.50
2023-04-25T15:22:57.394Z,2.05
2023-04-25T15:25:26.664Z,1.88
2023-04-25T15:27:55.728Z,1.92
2023-04-25T15:30:23.296Z,2.05
2023-04-25T15:32:50.815Z,1.67
2023-04-25T15:35:18.339Z,2.78
2023-04-25T15:37:46.160Z,3.13
2023-04-25T15:40:17.471Z,1.63
2023-04-25T15:42:48.434Z,2.13
2023-04-25T15:45:17.639Z,1.65
2023-04-25T15:47:46.247Z,2.22
2023-04-25T15:52:42.320Z,2.08
2023-04-25T15:55:10.377Z,1.83
2023-04-25T15:57:38.737Z,1.83
2023-04-25T16:00:11.049Z,2.40
2023-04-25T16:02:39.415Z,1.88
2023-04-25T16:05:07.637Z,1.42
2023-04-25T16:07:35.585Z,1.63
2023-04-25T16:10:03.151Z,1.30
2023-04-25T16:12:31.356Z,1.13
2023-04-25T16:14:59.038Z,2.25
2023-04-25T16:17:29.889Z,1.77
2023-04-25T16:19:59.125Z,2.53
2023-04-25T16:22:26.736Z,1.15
2023-04-25T16:24:54.193Z,1.60
2023-04-25T16:27:21.837Z,1.73
2023-04-25T16:29:51.181Z,1.58
2023-04-25T16:32:18.732Z,1.27
2023-04-25T16:34:47.605Z,1.20
2023-04-25T16:37:15.046Z,1.60
2023-04-25T16:39:42.539Z,1.90
2023-04-25T16:42:10.129Z,1.35
2023-04-25T16:44:37.564Z,1.42
2023-04-25T16:47:06.014Z,1.23
2023-04-25T16:49:33.801Z,1.10
2023-04-25T16:52:02.654Z,1.20
2023-04-25T16:54:30.120Z,1.70
2023-04-25T16:56:58.103Z,1.35
2023-04-25T16:59:25.654Z,1.52
2023-04-25T17:01:53.167Z,1.35
2023-04-25T17:04:20.863Z,1.25
2023-04-25T17:06:48.442Z,1.88
2023-04-25T17:09:17.235Z,1.67
2023-04-25T17:11:44.681Z,1.60
2023-04-25T17:14:12.188Z,1.10
2023-04-25T17:16:40.051Z,1.27
2023-04-25T17:19:07.815Z,1.65
2023-04-25T17:21:35.512Z,1.73
2023-04-25T17:24:05.974Z,1.80
2023-04-25T17:26:34.867Z,1.88
2023-04-25T17:29:02.358Z,1.65
2023-04-25T17:31:29.956Z,2.20
2023-04-25T17:33:58.695Z,1.88
2023-04-25T17:38:53.803Z,1.90
2023-04-25T17:41:21.949Z,2.25
2023-04-25T17:43:51.307Z,2.15
2023-04-25T17:46:18.860Z,1.67
2023-04-25T17:48:46.356Z,2.60
2023-04-25T17:51:14.486Z,1.10
2023-04-25T17:53:42.620Z,1.75
2023-04-25T17:56:23.408Z,1.80
2023-04-25T17:58:56.051Z,3.17
2023-04-25T18:01:26.860Z,3.17
2023-04-25T18:03:54.628Z,2.10
2023-04-25T18:06:22.221Z,1.83
2023-04-25T18:08:50.380Z,1.60
2023-04-25T18:11:18.212Z,1.75
2023-04-25T18:13:45.750Z,1.30
2023-04-25T18:16:14.706Z,1.63
2023-04-25T18:18:43.976Z,1.33
2023-04-25T18:21:11.681Z,1.45
2023-04-25T18:23:39.237Z,1.35
2023-04-25T18:26:07.863Z,1.45
2023-04-25T18:28:35.536Z,1.42
2023-04-25T18:31:04.029Z,1.60
2023-04-25T18:33:33.307Z,1.60
2023-04-25T18:36:00.885Z,3.40
2023-04-25T18:41:10.673Z,2.10
2023-04-25T18:43:43.429Z,1.48
2023-04-25T18:46:11.126Z,1.42
2023-04-25T18:48:40.181Z,1.88
2023-04-25T18:51:07.705Z,1.63
2023-04-25T18:53:35.586Z,1.70
2023-04-25T18:56:03.087Z,1.17
2023-04-25T18:58:30.581Z,1.50
2023-04-25T19:00:58.107Z,1.98
2023-04-25T19:03:26.244Z,1.33
2023-04-25T19:05:55.379Z,1.50
2023-04-25T19:08:24.187Z,1.60
2023-04-25T19:10:53.571Z,2.30
2023-04-25T19:13:21.593Z,3.08
2023-04-25T19:15:49.432Z,2.30
2023-04-25T19:18:17.232Z,2.53
2023-04-25T19:20:45.408Z,1.67
2023-04-25T19:23:14.332Z,2.10
2023-04-25T19:25:42.560Z,1.80
2023-04-25T19:28:12.755Z,2.13
2023-04-25T19:30:41.116Z,2.20
2023-04-25T19:33:08.599Z,2.20
2023-04-25T19:35:36.110Z,1.67
2023-04-25T19:38:03.662Z,1.77
2023-04-25T19:40:32.485Z,1.77
2023-04-25T19:42:59.941Z,1.58
2023-04-25T19:45:27.426Z,2.00
2023-04-25T19:47:56.006Z,1.83
2023-04-25T19:52:51.950Z,2.20
2023-04-25T19:55:19.492Z,1.50
2023-04-25T19:57:48.510Z,2.10
2023-04-25T20:00:19.820Z,1.30
2023-04-25T20:02:48.295Z,1.20
2023-04-25T20:05:20.073Z,1.70
2023-04-25T20:07:47.519Z,1.80
2023-04-25T20:10:16.266Z,1.90
2023-04-25T20:12:45.380Z,2.35
2023-04-25T20:15:14.170Z,2.90
2023-04-25T20:17:42.354Z,2.83
2023-04-25T20:20:11.230Z,2.10
2023-04-25T20:22:40.281Z,2.55
2023-04-25T20:25:10.631Z,2.40
2023-04-25T20:27:38.568Z,2.65
2023-04-25T20:30:08.267Z,2.92
2023-04-25T20:32:37.911Z,3.40
2023-04-25T20:35:08.839Z,3.25
2023-04-25T20:37:37.482Z,3.45
2023-04-25T20:42:34.203Z,1.90
2023-04-25T20:45:01.685Z,1.88
2023-04-25T20:47:29.610Z,2.00
2023-04-25T20:49:59.284Z,2.33
2023-04-25T20:52:27.053Z,2.15
2023-04-25T20:54:54.621Z,2.88
2023-04-25T20:57:22.343Z,2.80
2023-04-25T20:59:50.918Z,3.08
2023-04-25T21:04:46.462Z,2.92
2023-04-25T21:07:15.445Z,2.40
2023-04-25T21:09:45.272Z,2.25
2023-04-25T21:12:12.908Z,3.30
2023-04-25T21:14:40.403Z,2.35
2023-04-25T21:17:08.018Z,2.38
2023-04-25T21:19:35.488Z,2.65
2023-04-25T21:22:03.606Z,2.42
2023-04-25T21:24:33.116Z,2.60
2023-04-25T21:27:00.982Z,2.30
2023-04-25T21:29:28.743Z,1.80
2023-04-25T21:31:56.498Z,1.92
2023-04-25T21:34:23.986Z,2.42
2023-04-25T21:36:51.425Z,2.20
2023-04-25T21:39:19.759Z,1.77
2023-04-25T21:41:48.625Z,1.35
2023-04-25T21:44:16.110Z,1.88
2023-04-25T21:46:44.072Z,1.65
2023-04-25T21:49:12.110Z,1.98
2023-04-25T21:51:39.579Z,1.48
2023-04-25T21:54:07.697Z,1.80
2023-04-25T21:56:35.183Z,1.90
2023-04-25T21:59:04.241Z,1.83
2023-04-25T22:01:31.749Z,1.88
2023-04-25T22:03:59.386Z,1.92
2023-04-25T22:06:26.883Z,1.90
2023-04-25T22:08:54.525Z,1.70
2023-04-25T22:11:24.580Z,2.03
2023-04-25T22:13:52.059Z,2.10
2023-04-25T22:16:20.889Z,1.90
2023-04-25T22:18:49.107Z,1.90
2023-04-25T22:21:16.811Z,1.63
2023-04-25T22:23:44.274Z,2.10
2023-04-25T22:26:12.345Z,2.00
2023-04-25T22:28:40.522Z,2.28
2023-04-25T22:31:08.380Z,1.58
2023-04-25T22:33:37.358Z,2.08
2023-04-25T22:36:05.232Z,1.73
2023-04-25T22:38:32.752Z,1.65
2023-04-25T22:41:00.384Z,1.70
2023-04-25T22:43:29.086Z,1.85
2023-04-25T22:48:24.235Z,1.83
2023-04-25T22:51:02.537Z,1.55
2023-04-25T22:53:30.894Z,1.77
2023-04-25T22:55:58.621Z,1.65
2023-04-25T22:58:26.403Z,1.95
2023-04-25T23:00:54.684Z,2.10
2023-04-25T23:03:22.524Z,2.20
2023-04-25T23:05:50.662Z,2.17
2023-04-25T23:08:19.689Z,2.03
2023-04-25T23:10:47.365Z,1.83
2023-04-25T23:13:15.376Z,1.63
2023-04-25T23:15:42.822Z,1.70
2023-04-25T23:18:10.299Z,1.40
2023-04-25T23:20:37.768Z,2.10
2023-04-25T23:23:05.887Z,2.20
2023-04-25T23:25:39.790Z,1.67
2023-04-25T23:28:07.550Z,1.60
2023-04-25T23:30:35.044Z,1.92
2023-04-25T23:33:03.902Z,2.00
2023-04-25T23:35:31.714Z,1.75
2023-04-25T23:37:59.275Z,1.90
2023-04-25T23:40:27.178Z,1.75
2023-04-25T23:42:55.946Z,1.42
2023-04-25T23:45:23.431Z,1.80
2023-04-25T23:47:51.064Z,2.13
2023-04-25T23:50:18.773Z,1.88
2023-04-25T23:52:46.237Z,1.98
2023-04-25T23:55:13.697Z,2.33
2023-04-25T23:57:44.177Z,2.05
